Terminal Aerodrome Forecast
Issued by NWS

Home | Current Version | Previous Version | Text Only | Print | Product List | Glossary On
Versions: 1 2 3 4 5 6 7 8 9 10 11 12 13 14 15 16 17 18 19 20 21 22 23 24 25
000
FTPQ31 PGUM 192300 RRA
TAFPQ
TAF

PGSN 192343Z 2000/2024 13009KT P6SM VCSH SCT016 SCT040 BKN120
      TEMPO 2000/2002 -SHRA SCT014 BKN030
     FM200200 13011G18KT P6SM VCSH FEW018 SCT040 SCT120
     FM200900 13010KT P6SM VCSH FEW018 SCT040=

USA.gov is the U.S. government's official web portal to all federal, state and local government web resources and services.